Portada
METAR-TAF:

METAR-TAF

Aeroports :

Aeroport Internacional de Tabarka

Tabarka, Tunísia

latitud: 36-57N, longitud: 008-45E, altitud: 20 m

Observació

L'informe es va fer fa 48 minuts, a les 14:00 UTC
Vent 14 kt del Est
Temperatura 19°C
Humitat 68%
Pressió 1013 hPa
Visibilitat 10 km o més
Núvols disperses a una alçada de 2000 ft

METAR: DTKA 011400Z 08014KT 9999 SCT020 19/13 Q1013 NOSIG

Hora: 15:48 (14:48 UTC)

Pronòstic

L'informe es va fer fa 2 hores i 48 minuts, a les 12:00 UTC
Pronòstic vàlid del 01 a les 13 UTC al 01 a les 22 UTC
Vent 15 kt del Est
Visibilitat 10 km o més
Núvols disperses a una alçada de 2000 ft
Núvols disperses a una alçada de 3300 ft

TAF: DTKA 011200Z 0113/0122 09015KT 9999 SCT020 SCT033

Observacions i pronòstics meteorològics de més de 4000 aeroports (METAR i TAF).

Les estacions disponibles són els punts grocs i vermells al mapa.

Posi el ratolí al punt desitjat per veure el nom de l'estació.

Feu clic per veure les observacions i els pronòstics meteorològics.

Per canviar el mapa: feu clic els botons verds amb una creu de color negre per apropar; al botó verd amb un guió per allunyar la imatge; o en les fletxes verdes per a mapes adjacents.


METAR-TAF: